createdAt,value
2023-01-31T00:00:57.494Z,-0.21
2023-01-31T00:03:46.743Z,-0.34
2023-01-31T00:06:37.499Z,-0.18
2023-01-31T00:09:27.368Z,-0.15
2023-01-31T00:12:14.859Z,-0.11
2023-01-31T00:15:04.667Z,-0.10
2023-01-31T00:17:52.443Z,-0.09
2023-01-31T00:20:39.776Z,-0.14
2023-01-31T00:23:27.285Z,-0.10
2023-01-31T00:26:17.584Z,-0.20
2023-01-31T00:29:07.230Z,-0.15
2023-01-31T00:31:56.198Z,-0.19
2023-01-31T00:34:43.470Z,-0.37
2023-01-31T00:37:33.678Z,-0.31
2023-01-31T00:40:22.301Z,-0.31
2023-01-31T00:42:51.740Z,-0.42
2023-01-31T00:45:20.975Z,-0.34
2023-01-31T00:47:54.693Z,-0.46
2023-01-31T00:50:24.356Z,-0.46
2023-01-31T00:52:54.649Z,-0.61
2023-01-31T00:55:23.545Z,-0.55
2023-01-31T00:57:52.677Z,-0.55
2023-01-31T01:00:22.031Z,-0.53
2023-01-31T01:02:51.125Z,-0.48
2023-01-31T01:05:23.223Z,-0.47
2023-01-31T01:07:52.676Z,-0.53
2023-01-31T01:10:22.322Z,-0.45
2023-01-31T01:12:51.461Z,-0.38
2023-01-31T01:15:21.632Z,-0.35
2023-01-31T01:17:52.113Z,-0.31
2023-01-31T01:20:23.610Z,-0.29
2023-01-31T01:22:55.243Z,-0.31
2023-01-31T01:25:25.194Z,-0.21
2023-01-31T01:27:54.355Z,-0.21
2023-01-31T01:30:23.270Z,-0.14
2023-01-31T01:32:52.512Z,-0.14
2023-01-31T01:35:22.991Z,-0.19
2023-01-31T01:37:52.061Z,-0.11
2023-01-31T01:40:21.844Z,-0.07
2023-01-31T01:42:50.817Z,-0.04
2023-01-31T01:45:21.456Z,0.05
2023-01-31T01:47:54.708Z,0.09
2023-01-31T01:50:29.256Z,0.11
2023-01-31T01:53:02.714Z,0.16
2023-01-31T01:55:37.421Z,0.20
2023-01-31T01:58:11.272Z,0.19
2023-01-31T02:00:41.030Z,0.22
2023-01-31T02:03:11.433Z,0.17
2023-01-31T02:05:45.832Z,0.05
2023-01-31T02:08:17.368Z,0.15
2023-01-31T02:10:51.035Z,0.03
2023-01-31T02:13:21.050Z,0.04
2023-01-31T02:15:50.497Z,-0.01
2023-01-31T02:18:22.646Z,0.05
2023-01-31T02:21:18.342Z,0.09
2023-01-31T02:24:20.212Z,0.18
2023-01-31T02:27:21.936Z,0.21
2023-01-31T02:30:35.405Z,0.25
2023-01-31T02:33:15.405Z,0.20
2023-01-31T02:35:55.426Z,0.23
2023-01-31T02:38:35.593Z,0.19
2023-01-31T02:41:16.917Z,0.21
2023-01-31T02:44:12.838Z,0.08
2023-01-31T02:46:50.887Z,0.06
2023-01-31T02:49:36.774Z,-0.13
2023-01-31T02:52:23.877Z,-0.15
2023-01-31T02:55:26.065Z,-0.09
2023-01-31T02:57:57.539Z,-0.04
2023-01-31T03:00:27.545Z,-0.09
2023-01-31T03:02:56.615Z,-0.07
2023-01-31T03:05:27.584Z,-0.07
2023-01-31T03:07:59.920Z,-0.07
2023-01-31T03:11:04.479Z,-0.05
2023-01-31T03:13:46.539Z,-0.07
2023-01-31T03:16:42.065Z,0.09
2023-01-31T03:19:17.530Z,0.08
2023-01-31T03:21:53.322Z,0.04
2023-01-31T03:24:26.684Z,0.09
2023-01-31T03:26:59.541Z,0.05
2023-01-31T03:29:34.600Z,0.02
2023-01-31T03:32:12.177Z,-0.03
2023-01-31T03:34:41.995Z,0.05
2023-01-31T03:37:21.723Z,0.00
2023-01-31T03:40:01.034Z,0.12
2023-01-31T03:42:39.739Z,0.06
2023-01-31T03:45:14.640Z,0.17
2023-01-31T03:47:46.064Z,0.07
2023-01-31T03:50:21.218Z,0.04
2023-01-31T03:52:56.966Z,0.12
2023-01-31T03:55:32.428Z,-0.01
2023-01-31T03:58:05.905Z,0.07
2023-01-31T04:00:38.321Z,0.05
2023-01-31T04:03:13.993Z,0.12
2023-01-31T04:05:43.815Z,0.05
2023-01-31T04:08:14.782Z,0.10
2023-01-31T04:10:46.653Z,0.01
2023-01-31T04:13:16.058Z,0.02
2023-01-31T04:15:45.169Z,-0.14
2023-01-31T04:18:14.369Z,0.05
2023-01-31T04:20:43.314Z,-0.03
2023-01-31T04:23:13.989Z,-0.06
2023-01-31T04:25:43.151Z,0.06
2023-01-31T04:28:12.760Z,-0.05
2023-01-31T04:30:41.941Z,0.02
2023-01-31T04:33:11.846Z,0.01
2023-01-31T04:35:41.970Z,0.09
2023-01-31T04:38:11.232Z,-0.03
2023-01-31T04:40:41.698Z,-0.03
2023-01-31T04:43:10.913Z,0.00
2023-01-31T04:45:40.088Z,-0.07
2023-01-31T04:48:10.222Z,0.01
2023-01-31T04:50:40.573Z,0.10
2023-01-31T04:53:09.685Z,0.09
2023-01-31T04:55:40.816Z,0.18
2023-01-31T04:58:12.506Z,0.15
2023-01-31T05:00:41.634Z,0.19
2023-01-31T05:03:11.217Z,0.29
2023-01-31T05:05:40.355Z,0.32
2023-01-31T05:08:09.509Z,0.34
2023-01-31T05:10:38.558Z,0.34
2023-01-31T05:13:09.041Z,0.36
2023-01-31T05:15:39.788Z,0.37
2023-01-31T05:18:08.910Z,0.41
2023-01-31T05:20:41.069Z,0.46
2023-01-31T05:23:11.132Z,0.43
2023-01-31T05:25:40.722Z,0.46
2023-01-31T05:28:11.907Z,0.45
2023-01-31T05:30:41.552Z,0.51
2023-01-31T05:33:11.080Z,0.53
2023-01-31T05:35:42.334Z,0.58
2023-01-31T05:38:11.622Z,0.63
2023-01-31T05:40:40.530Z,0.59
2023-01-31T05:43:11.101Z,0.69
2023-01-31T05:45:40.287Z,0.73
2023-01-31T05:48:09.379Z,0.72
2023-01-31T05:50:38.514Z,0.84
2023-01-31T05:53:13.238Z,0.88
2023-01-31T05:55:43.531Z,0.90
2023-01-31T05:58:14.632Z,0.94
2023-01-31T06:00:43.655Z,0.97
2023-01-31T06:03:12.609Z,1.07
2023-01-31T06:05:42.438Z,1.07
2023-01-31T06:08:13.005Z,1.05
2023-01-31T06:10:42.104Z,1.11
2023-01-31T06:13:11.267Z,1.11
2023-01-31T06:15:46.419Z,1.13
2023-01-31T06:18:16.105Z,1.18
2023-01-31T06:20:45.089Z,1.21
2023-01-31T06:23:14.613Z,1.16
2023-01-31T06:25:43.598Z,1.20
2023-01-31T06:28:12.816Z,1.17
2023-01-31T06:30:41.907Z,1.20
2023-01-31T06:33:14.181Z,1.06
2023-01-31T06:35:43.222Z,1.12
2023-01-31T06:38:13.953Z,1.18
2023-01-31T06:40:43.414Z,1.21
2023-01-31T06:43:12.495Z,1.06
2023-01-31T06:45:44.462Z,1.13
2023-01-31T06:48:14.944Z,0.87
2023-01-31T06:50:44.857Z,1.01
2023-01-31T06:53:13.914Z,1.17
2023-01-31T06:55:43.040Z,1.19
2023-01-31T06:58:12.718Z,1.22
2023-01-31T07:00:42.354Z,1.22
2023-01-31T07:03:11.931Z,1.25
2023-01-31T07:05:43.318Z,1.23
2023-01-31T07:08:12.575Z,1.29
2023-01-31T07:10:41.676Z,1.32
2023-01-31T07:13:11.025Z,1.37
2023-01-31T07:15:40.068Z,1.39
2023-01-31T07:18:09.223Z,1.38
2023-01-31T07:20:38.349Z,1.36
2023-01-31T07:23:15.173Z,1.43
2023-01-31T07:25:45.801Z,1.48
2023-01-31T07:28:14.887Z,1.53
2023-01-31T07:30:44.122Z,1.39
2023-01-31T07:33:14.118Z,1.41
2023-01-31T07:35:44.343Z,1.43
2023-01-31T07:38:15.946Z,1.50
2023-01-31T07:40:45.199Z,1.52
2023-01-31T07:43:14.256Z,1.55
2023-01-31T07:45:43.463Z,1.57
2023-01-31T07:48:12.485Z,1.42
2023-01-31T07:50:41.648Z,1.58
2023-01-31T07:53:10.705Z,1.61
2023-01-31T07:55:41.295Z,1.61
2023-01-31T07:58:11.324Z,1.71
2023-01-31T08:00:54.049Z,1.69
2023-01-31T08:03:36.545Z,1.75
2023-01-31T08:06:09.913Z,1.74
2023-01-31T08:08:39.578Z,1.78
2023-01-31T08:11:10.309Z,1.66
2023-01-31T08:13:40.470Z,1.64
2023-01-31T08:16:10.940Z,1.72
2023-01-31T08:18:40.663Z,1.76
2023-01-31T08:21:12.256Z,1.84
2023-01-31T08:23:42.109Z,1.77
2023-01-31T08:26:14.652Z,1.72
2023-01-31T08:28:44.520Z,1.76
2023-01-31T08:31:17.071Z,1.82
2023-01-31T08:33:47.526Z,1.79
2023-01-31T08:36:19.804Z,1.90
2023-01-31T08:38:50.426Z,2.03
2023-01-31T08:41:25.540Z,2.01
2023-01-31T08:43:57.973Z,2.23
2023-01-31T08:46:30.434Z,2.35
2023-01-31T08:49:00.122Z,2.45
2023-01-31T08:51:30.112Z,2.48
2023-01-31T08:53:59.681Z,2.49
2023-01-31T08:56:30.301Z,2.47
2023-01-31T08:59:00.077Z,2.40
2023-01-31T09:01:30.341Z,2.22
2023-01-31T09:03:59.542Z,2.35
2023-01-31T09:06:30.184Z,2.31
2023-01-31T09:09:00.152Z,2.38
2023-01-31T09:11:33.679Z,2.33
2023-01-31T09:14:02.809Z,2.38
2023-01-31T09:16:32.385Z,2.42
2023-01-31T09:19:01.536Z,2.41
2023-01-31T09:21:31.168Z,2.44
2023-01-31T09:24:04.092Z,2.39
2023-01-31T09:26:34.546Z,2.52
2023-01-31T09:29:03.713Z,2.60
2023-01-31T09:31:33.409Z,2.73
2023-01-31T09:34:03.423Z,2.87
2023-01-31T09:36:32.726Z,2.85
2023-01-31T09:39:02.165Z,2.82
2023-01-31T09:41:38.086Z,2.85
2023-01-31T09:44:12.805Z,2.69
2023-01-31T09:46:47.023Z,2.74
2023-01-31T09:49:22.300Z,2.66
2023-01-31T09:51:57.250Z,2.66
2023-01-31T09:54:31.098Z,2.66
2023-01-31T09:57:14.675Z,2.54
2023-01-31T09:59:50.795Z,2.53
2023-01-31T10:02:38.705Z,2.67
2023-01-31T10:05:21.485Z,2.76
2023-01-31T10:08:01.900Z,2.84
2023-01-31T10:10:38.615Z,2.84
2023-01-31T10:13:21.111Z,2.91
2023-01-31T10:15:54.371Z,3.37
2023-01-31T10:18:27.968Z,3.49
2023-01-31T10:21:01.793Z,3.43
2023-01-31T10:23:39.381Z,3.47
2023-01-31T10:26:15.020Z,3.40
2023-01-31T10:28:53.059Z,3.51
2023-01-31T10:31:30.605Z,3.96
2023-01-31T10:34:05.678Z,3.77
2023-01-31T10:36:39.971Z,3.66
2023-01-31T10:39:19.054Z,3.34
2023-01-31T10:42:06.868Z,3.18
2023-01-31T10:44:46.021Z,3.08
2023-01-31T10:47:18.374Z,2.95
2023-01-31T10:49:49.097Z,2.92
2023-01-31T10:52:29.913Z,2.90
2023-01-31T10:55:09.510Z,2.87
2023-01-31T10:57:39.095Z,2.91
2023-01-31T11:00:19.741Z,2.97
2023-01-31T11:02:49.711Z,3.00
2023-01-31T11:05:22.215Z,2.91
2023-01-31T11:07:52.150Z,3.03
2023-01-31T11:10:28.274Z,3.03
2023-01-31T11:13:00.022Z,3.12
2023-01-31T11:15:37.385Z,3.01
2023-01-31T11:18:08.382Z,2.90
2023-01-31T11:20:45.779Z,2.92
2023-01-31T11:23:18.648Z,2.99
2023-01-31T11:25:51.360Z,2.90
2023-01-31T11:28:24.353Z,2.97
2023-01-31T11:30:57.061Z,2.92
2023-01-31T11:33:44.484Z,2.83
2023-01-31T11:36:15.557Z,2.80
2023-01-31T11:38:44.954Z,2.64
2023-01-31T11:41:30.444Z,2.72
2023-01-31T11:44:18.087Z,3.00
2023-01-31T11:46:56.071Z,3.21
2023-01-31T11:49:42.244Z,3.48
2023-01-31T11:52:17.082Z,3.65
2023-01-31T11:54:59.926Z,3.85
2023-01-31T11:57:33.284Z,4.01
2023-01-31T12:00:05.918Z,4.00
2023-01-31T12:02:42.486Z,3.97
2023-01-31T12:05:13.776Z,3.80
2023-01-31T12:07:46.222Z,3.85
2023-01-31T12:10:30.290Z,3.86
2023-01-31T12:13:17.623Z,3.92
2023-01-31T12:15:52.436Z,4.03
2023-01-31T12:18:35.193Z,3.99
2023-01-31T12:21:09.605Z,3.93
2023-01-31T12:23:41.322Z,3.93
2023-01-31T12:26:16.761Z,3.93
2023-01-31T12:29:03.419Z,3.99
2023-01-31T12:31:50.977Z,3.91
2023-01-31T12:34:37.208Z,3.99
2023-01-31T12:37:22.067Z,3.82
2023-01-31T12:40:22.824Z,3.47
2023-01-31T12:42:59.906Z,3.62
2023-01-31T12:46:04.629Z,3.45
2023-01-31T12:48:49.876Z,3.66
2023-01-31T12:51:41.497Z,3.62
2023-01-31T12:54:34.188Z,3.74
2023-01-31T12:57:26.102Z,3.92
2023-01-31T13:00:05.904Z,3.87
2023-01-31T13:02:44.256Z,3.82
2023-01-31T13:05:28.242Z,3.89
2023-01-31T13:08:04.130Z,3.94
2023-01-31T13:10:39.382Z,3.99
2023-01-31T13:13:18.635Z,4.01
2023-01-31T13:15:52.868Z,3.92
2023-01-31T13:18:24.473Z,3.82
2023-01-31T13:20:59.188Z,3.85
2023-01-31T13:23:34.262Z,3.89
2023-01-31T13:26:11.293Z,3.96
2023-01-31T13:28:47.025Z,3.98
2023-01-31T13:31:22.262Z,3.83
2023-01-31T13:33:58.614Z,3.70
2023-01-31T13:36:32.511Z,3.99
2023-01-31T13:39:11.543Z,4.09
2023-01-31T13:41:41.225Z,4.38
2023-01-31T13:44:14.494Z,4.32
2023-01-31T13:46:52.390Z,4.80
2023-01-31T13:49:28.531Z,5.04
2023-01-31T13:52:00.599Z,5.21
2023-01-31T13:54:37.499Z,4.97
2023-01-31T13:57:07.633Z,4.61
2023-01-31T13:59:39.292Z,4.66
2023-01-31T14:02:19.941Z,4.42
2023-01-31T14:04:49.167Z,4.37
2023-01-31T14:07:21.358Z,4.28
2023-01-31T14:10:39.679Z,3.94
2023-01-31T14:13:40.532Z,3.63
2023-01-31T14:16:38.163Z,3.16
2023-01-31T14:19:47.826Z,3.31
2023-01-31T14:22:18.499Z,3.14
2023-01-31T14:25:00.493Z,3.08
2023-01-31T14:27:35.305Z,3.08
2023-01-31T14:30:37.987Z,3.14
2023-01-31T14:33:25.292Z,3.06
2023-01-31T14:36:42.819Z,2.99
2023-01-31T14:40:06.297Z,2.79
2023-01-31T14:42:54.682Z,2.74
2023-01-31T14:46:03.118Z,2.62
2023-01-31T14:48:44.820Z,2.51
2023-01-31T14:51:25.963Z,2.43
2023-01-31T14:54:24.810Z,2.25
2023-01-31T14:57:12.477Z,2.22
2023-01-31T14:59:53.672Z,2.06
2023-01-31T15:02:56.375Z,2.08
2023-01-31T15:05:43.539Z,1.96
2023-01-31T15:08:49.504Z,2.03
2023-01-31T15:11:41.846Z,2.00
2023-01-31T15:14:42.261Z,2.01
2023-01-31T15:17:33.788Z,1.97
2023-01-31T15:20:16.269Z,1.92
2023-01-31T15:22:48.658Z,1.93
2023-01-31T15:25:26.634Z,1.90
2023-01-31T15:27:58.506Z,1.86
2023-01-31T15:30:30.430Z,1.92
2023-01-31T15:33:03.824Z,1.94
2023-01-31T15:35:36.550Z,1.83
2023-01-31T15:38:17.710Z,1.93
2023-01-31T15:40:50.086Z,1.95
2023-01-31T15:43:23.522Z,1.89
2023-01-31T15:45:53.457Z,1.96
2023-01-31T15:48:24.015Z,2.06
2023-01-31T15:50:55.112Z,2.03
2023-01-31T15:53:27.798Z,2.11
2023-01-31T15:55:59.538Z,2.16
2023-01-31T15:58:30.327Z,2.12
2023-01-31T16:01:01.993Z,2.08
2023-01-31T16:03:34.015Z,1.97
2023-01-31T16:06:03.956Z,2.03
2023-01-31T16:08:36.777Z,2.00
2023-01-31T16:11:09.765Z,2.07
2023-01-31T16:13:41.386Z,2.07
2023-01-31T16:16:14.344Z,2.06
2023-01-31T16:18:45.443Z,2.09
2023-01-31T16:21:25.670Z,2.03
2023-01-31T16:24:16.647Z,2.07
2023-01-31T16:26:56.453Z,2.11
2023-01-31T16:29:32.626Z,2.13
2023-01-31T16:32:01.605Z,2.10
2023-01-31T16:34:33.463Z,2.07
2023-01-31T16:37:03.968Z,2.13
2023-01-31T16:39:40.478Z,2.11
2023-01-31T16:42:23.892Z,2.08
2023-01-31T16:44:53.458Z,1.99
2023-01-31T16:47:48.123Z,1.99
2023-01-31T16:50:43.716Z,1.98
2023-01-31T16:53:26.704Z,2.00
2023-01-31T16:56:20.466Z,1.97
2023-01-31T16:58:52.549Z,1.94
2023-01-31T17:01:26.417Z,1.97
2023-01-31T17:04:19.111Z,1.87
2023-01-31T17:06:52.608Z,1.89
2023-01-31T17:09:23.672Z,1.91
2023-01-31T17:11:55.950Z,1.94
2023-01-31T17:14:25.013Z,1.94
2023-01-31T17:16:55.626Z,1.89
2023-01-31T17:19:24.492Z,1.92
2023-01-31T17:21:53.832Z,1.92
2023-01-31T17:24:23.929Z,1.91
2023-01-31T17:26:54.089Z,1.87
2023-01-31T17:29:26.369Z,1.85
2023-01-31T17:31:55.487Z,1.78
2023-01-31T17:34:24.525Z,1.73
2023-01-31T17:36:53.498Z,1.77
2023-01-31T17:39:22.551Z,1.70
2023-01-31T17:41:51.717Z,1.60
2023-01-31T17:44:22.281Z,1.47
2023-01-31T17:46:53.107Z,1.38
2023-01-31T17:49:23.470Z,1.43
2023-01-31T17:51:52.548Z,1.50
2023-01-31T17:54:21.933Z,1.47
2023-01-31T17:56:52.251Z,1.50
2023-01-31T17:59:27.353Z,1.52
2023-01-31T18:02:01.403Z,1.43
2023-01-31T18:04:30.691Z,1.48
2023-01-31T18:06:59.835Z,1.40
2023-01-31T18:09:30.867Z,1.31
2023-01-31T18:12:00.116Z,1.47
2023-01-31T18:14:29.213Z,1.44
2023-01-31T18:16:59.842Z,1.43
2023-01-31T18:19:30.809Z,1.52
2023-01-31T18:22:00.263Z,1.41
2023-01-31T18:24:29.872Z,1.46
2023-01-31T18:26:59.038Z,1.50
2023-01-31T18:29:28.776Z,1.53
2023-01-31T18:32:02.829Z,1.54
2023-01-31T18:34:33.294Z,1.52
2023-01-31T18:37:06.826Z,1.39
2023-01-31T18:39:36.035Z,1.45
2023-01-31T18:42:05.361Z,1.51
2023-01-31T18:44:34.453Z,1.47
2023-01-31T18:47:05.733Z,1.48
2023-01-31T18:49:34.876Z,1.47
2023-01-31T18:52:04.215Z,1.31
2023-01-31T18:54:33.412Z,1.49
2023-01-31T18:57:02.750Z,1.46
2023-01-31T18:59:31.799Z,1.47
2023-01-31T19:02:01.154Z,1.50
2023-01-31T19:04:31.964Z,1.50
2023-01-31T19:07:01.759Z,1.51
2023-01-31T19:09:31.007Z,1.47
2023-01-31T19:12:00.308Z,1.38
2023-01-31T19:14:29.461Z,1.41
2023-01-31T19:16:59.738Z,1.45
2023-01-31T19:19:29.085Z,1.38
2023-01-31T19:21:59.653Z,1.36
2023-01-31T19:24:28.756Z,1.39
2023-01-31T19:26:57.792Z,1.42
2023-01-31T19:29:29.177Z,1.27
2023-01-31T19:31:58.286Z,1.20
2023-01-31T19:34:27.564Z,1.23
2023-01-31T19:36:56.646Z,1.17
2023-01-31T19:39:27.165Z,1.22
2023-01-31T19:41:56.289Z,1.24
2023-01-31T19:44:25.368Z,1.20
2023-01-31T19:46:54.599Z,1.18
2023-01-31T19:49:24.338Z,1.17
2023-01-31T19:51:53.321Z,1.11
2023-01-31T19:54:23.623Z,1.16
2023-01-31T19:56:54.807Z,1.14
2023-01-31T19:59:24.430Z,1.05
2023-01-31T20:01:53.516Z,1.03
2023-01-31T20:04:22.719Z,1.13
2023-01-31T20:06:54.978Z,1.12
2023-01-31T20:09:24.819Z,1.06
2023-01-31T20:11:55.446Z,0.99
2023-01-31T20:14:25.315Z,1.03
2023-01-31T20:16:54.437Z,1.03
2023-01-31T20:19:23.903Z,1.07
2023-01-31T20:21:52.865Z,0.89
2023-01-31T20:24:21.838Z,0.98
2023-01-31T20:26:50.667Z,0.94
2023-01-31T20:29:21.067Z,1.00
2023-01-31T20:31:51.345Z,0.98
2023-01-31T20:34:20.489Z,1.04
2023-01-31T20:36:49.497Z,1.02
2023-01-31T20:39:18.358Z,1.00
2023-01-31T20:41:47.460Z,0.97
2023-01-31T20:44:16.415Z,1.02
2023-01-31T20:46:49.005Z,0.89
2023-01-31T20:49:17.964Z,1.01
2023-01-31T20:51:46.837Z,1.13
2023-01-31T20:54:16.301Z,1.12
2023-01-31T20:56:45.732Z,0.92
2023-01-31T20:59:14.532Z,0.84
2023-01-31T21:01:44.013Z,0.88
2023-01-31T21:04:17.391Z,0.92
2023-01-31T21:06:46.847Z,0.87
2023-01-31T21:09:16.974Z,0.78
2023-01-31T21:11:45.804Z,0.78
2023-01-31T21:14:15.240Z,0.78
2023-01-31T21:16:44.245Z,0.78
2023-01-31T21:19:14.155Z,0.67
2023-01-31T21:21:44.491Z,0.71
2023-01-31T21:24:13.514Z,0.77
2023-01-31T21:26:43.148Z,0.80
2023-01-31T21:29:12.846Z,0.80
2023-01-31T21:31:42.599Z,0.72
2023-01-31T21:34:12.482Z,0.86
2023-01-31T21:36:41.545Z,0.86
2023-01-31T21:39:14.546Z,0.83
2023-01-31T21:42:01.281Z,0.79
2023-01-31T21:44:30.486Z,0.82
2023-01-31T21:46:59.616Z,0.87
2023-01-31T21:49:28.734Z,0.81
2023-01-31T21:51:57.823Z,0.82
2023-01-31T21:54:28.678Z,0.83
2023-01-31T21:56:58.359Z,0.90
2023-01-31T21:59:28.173Z,0.89
2023-01-31T22:01:57.278Z,0.96
2023-01-31T22:04:26.393Z,0.97
2023-01-31T22:06:56.973Z,1.00
2023-01-31T22:09:27.709Z,1.06
2023-01-31T22:11:57.409Z,1.06
2023-01-31T22:14:26.496Z,1.03
2023-01-31T22:16:55.641Z,1.03
2023-01-31T22:19:24.674Z,1.05
2023-01-31T22:21:54.302Z,1.06
2023-01-31T22:24:23.324Z,1.07
2023-01-31T22:26:53.882Z,0.99
2023-01-31T22:29:23.077Z,1.06
2023-01-31T22:31:55.008Z,1.06
2023-01-31T22:34:25.467Z,1.07
2023-01-31T22:36:55.167Z,1.07
2023-01-31T22:39:24.120Z,1.08
2023-01-31T22:41:54.665Z,1.06
2023-01-31T22:44:23.849Z,1.02
2023-01-31T22:46:53.012Z,1.01
2023-01-31T22:49:22.621Z,0.99
2023-01-31T22:51:51.899Z,1.03
2023-01-31T22:54:20.924Z,1.02
2023-01-31T22:56:50.556Z,1.04
2023-01-31T22:59:21.790Z,1.05
2023-01-31T23:01:50.690Z,1.03
2023-01-31T23:04:20.309Z,1.06
2023-01-31T23:06:50.049Z,0.99
2023-01-31T23:09:19.284Z,1.03
2023-01-31T23:11:48.295Z,1.05
2023-01-31T23:14:17.840Z,1.03
2023-01-31T23:17:06.213Z,0.98
2023-01-31T23:19:35.324Z,1.01
2023-01-31T23:22:04.993Z,0.95
2023-01-31T23:24:36.858Z,0.96
2023-01-31T23:27:07.784Z,0.97
2023-01-31T23:29:36.935Z,0.94
2023-01-31T23:32:07.719Z,0.92
2023-01-31T23:34:36.739Z,0.97
2023-01-31T23:37:06.515Z,1.03
2023-01-31T23:39:35.572Z,1.02
2023-01-31T23:42:04.649Z,1.05
2023-01-31T23:44:33.816Z,1.02
2023-01-31T23:47:03.339Z,1.05
2023-01-31T23:49:33.865Z,1.09
2023-01-31T23:52:07.015Z,1.15
2023-01-31T23:54:36.505Z,1.14
2023-01-31T23:57:05.760Z,1.00
2023-01-31T23:59:35.497Z,1.07
